sensor_id;sensor_type;location;lat;lon;timestamp;temperature;humidity
51765;DHT22;37835;53.256;6.456;2023-11-19T00:00:10;11.10;99.90
51765;DHT22;37835;53.256;6.456;2023-11-19T00:02:38;11.20;99.90
51765;DHT22;37835;53.256;6.456;2023-11-19T00:05:04;11.30;99.90
51765;DHT22;37835;53.256;6.456;2023-11-19T00:07:29;11.30;99.90
51765;DHT22;37835;53.256;6.456;2023-11-19T00:09:55;11.40;99.90
51765;DHT22;37835;53.256;6.456;2023-11-19T00:12:21;11.40;99.90
51765;DHT22;37835;53.256;6.456;2023-11-19T00:14:47;11.50;99.90
51765;DHT22;37835;53.256;6.456;2023-11-19T00:17:13;11.50;99.90
51765;DHT22;37835;53.256;6.456;2023-11-19T00:19:38;11.50;99.90
51765;DHT22;37835;53.256;6.456;2023-11-19T00:22:04;11.50;99.90
51765;DHT22;37835;53.256;6.456;2023-11-19T00:24:30;11.50;99.90
51765;DHT22;37835;53.256;6.456;2023-11-19T00:26:57;11.60;99.90
51765;DHT22;37835;53.256;6.456;2023-11-19T00:29:22;11.60;99.90
51765;DHT22;37835;53.256;6.456;2023-11-19T00:31:48;11.60;99.90
51765;DHT22;37835;53.256;6.456;2023-11-19T00:34:13;11.60;99.90
51765;DHT22;37835;53.256;6.456;2023-11-19T00:36:39;11.70;99.90
51765;DHT22;37835;53.256;6.456;2023-11-19T00:39:05;11.80;99.90
51765;DHT22;37835;53.256;6.456;2023-11-19T00:41:31;11.80;99.90
51765;DHT22;37835;53.256;6.456;2023-11-19T00:43:56;11.80;99.90
51765;DHT22;37835;53.256;6.456;2023-11-19T00:46:22;11.80;99.90
51765;DHT22;37835;53.256;6.456;2023-11-19T00:48:47;11.80;99.90
51765;DHT22;37835;53.256;6.456;2023-11-19T00:51:13;11.80;99.90
51765;DHT22;37835;53.256;6.456;2023-11-19T00:53:40;11.90;99.90
51765;DHT22;37835;53.256;6.456;2023-11-19T00:56:06;11.90;99.90
51765;DHT22;37835;53.256;6.456;2023-11-19T00:58:32;11.90;99.90
51765;DHT22;37835;53.256;6.456;2023-11-19T01:00:58;12.00;99.90
51765;DHT22;37835;53.256;6.456;2023-11-19T01:03:23;12.00;99.90
51765;DHT22;37835;53.256;6.456;2023-11-19T01:05:49;12.00;99.90
51765;DHT22;37835;53.256;6.456;2023-11-19T01:08:14;12.00;99.90
51765;DHT22;37835;53.256;6.456;2023-11-19T01:10:41;12.00;99.90
51765;DHT22;37835;53.256;6.456;2023-11-19T01:13:06;12.00;99.90
51765;DHT22;37835;53.256;6.456;2023-11-19T01:15:32;12.00;99.90
51765;DHT22;37835;53.256;6.456;2023-11-19T01:17:58;12.00;99.90
51765;DHT22;37835;53.256;6.456;2023-11-19T01:20:23;12.00;99.90
51765;DHT22;37835;53.256;6.456;2023-11-19T01:22:50;12.00;99.90
51765;DHT22;37835;53.256;6.456;2023-11-19T01:25:16;12.00;99.90
51765;DHT22;37835;53.256;6.456;2023-11-19T01:27:42;12.00;99.90
51765;DHT22;37835;53.256;6.456;2023-11-19T01:30:08;12.00;99.90
51765;DHT22;37835;53.256;6.456;2023-11-19T01:32:39;12.00;99.90
51765;DHT22;37835;53.256;6.456;2023-11-19T01:35:05;12.00;99.90
51765;DHT22;37835;53.256;6.456;2023-11-19T01:37:31;12.00;99.90
51765;DHT22;37835;53.256;6.456;2023-11-19T01:39:57;12.00;99.90
51765;DHT22;37835;53.256;6.456;2023-11-19T01:42:23;12.00;99.90
51765;DHT22;37835;53.256;6.456;2023-11-19T01:45:00;12.00;99.90
51765;DHT22;37835;53.256;6.456;2023-11-19T01:47:30;12.00;99.90
51765;DHT22;37835;53.256;6.456;2023-11-19T01:49:56;12.00;99.90
51765;DHT22;37835;53.256;6.456;2023-11-19T01:52:22;12.00;99.90
51765;DHT22;37835;53.256;6.456;2023-11-19T01:54:49;12.00;99.90
51765;DHT22;37835;53.256;6.456;2023-11-19T01:57:15;12.00;99.90
51765;DHT22;37835;53.256;6.456;2023-11-19T01:59:41;12.00;99.90
51765;DHT22;37835;53.256;6.456;2023-11-19T02:02:07;12.00;99.90
51765;DHT22;37835;53.256;6.456;2023-11-19T02:04:33;12.00;99.90
51765;DHT22;37835;53.256;6.456;2023-11-19T02:07:00;12.00;99.90
51765;DHT22;37835;53.256;6.456;2023-11-19T02:09:25;12.00;99.90
51765;DHT22;37835;53.256;6.456;2023-11-19T02:11:52;12.00;99.90
51765;DHT22;37835;53.256;6.456;2023-11-19T02:14:22;11.90;99.90
51765;DHT22;37835;53.256;6.456;2023-11-19T02:16:49;11.90;99.90
51765;DHT22;37835;53.256;6.456;2023-11-19T02:19:14;11.90;99.90
51765;DHT22;37835;53.256;6.456;2023-11-19T02:21:40;11.90;99.90
51765;DHT22;37835;53.256;6.456;2023-11-19T02:24:09;11.90;99.90
51765;DHT22;37835;53.256;6.456;2023-11-19T02:26:52;11.90;99.90
51765;DHT22;37835;53.256;6.456;2023-11-19T02:29:21;11.90;99.90
51765;DHT22;37835;53.256;6.456;2023-11-19T02:31:47;11.90;99.90
51765;DHT22;37835;53.256;6.456;2023-11-19T02:34:13;11.90;99.90
51765;DHT22;37835;53.256;6.456;2023-11-19T02:36:38;11.80;99.90
51765;DHT22;37835;53.256;6.456;2023-11-19T02:39:07;11.80;99.90
51765;DHT22;37835;53.256;6.456;2023-11-19T02:41:35;11.80;99.90
51765;DHT22;37835;53.256;6.456;2023-11-19T02:44:01;11.80;99.90
51765;DHT22;37835;53.256;6.456;2023-11-19T02:46:27;11.90;99.90
51765;DHT22;37835;53.256;6.456;2023-11-19T02:48:52;11.80;99.90
51765;DHT22;37835;53.256;6.456;2023-11-19T02:51:18;11.70;99.90
51765;DHT22;37835;53.256;6.456;2023-11-19T02:53:44;11.70;99.90
51765;DHT22;37835;53.256;6.456;2023-11-19T02:56:09;11.70;99.90
51765;DHT22;37835;53.256;6.456;2023-11-19T02:58:45;11.70;99.90
51765;DHT22;37835;53.256;6.456;2023-11-19T03:01:12;11.70;99.90
51765;DHT22;37835;53.256;6.456;2023-11-19T03:03:49;11.70;99.90
51765;DHT22;37835;53.256;6.456;2023-11-19T03:06:20;11.70;99.90
51765;DHT22;37835;53.256;6.456;2023-11-19T03:08:47;11.70;99.90
51765;DHT22;37835;53.256;6.456;2023-11-19T03:11:13;11.70;99.90
51765;DHT22;37835;53.256;6.456;2023-11-19T03:13:39;11.70;99.90
51765;DHT22;37835;53.256;6.456;2023-11-19T03:16:05;11.60;99.90
51765;DHT22;37835;53.256;6.456;2023-11-19T03:18:30;11.60;99.90
51765;DHT22;37835;53.256;6.456;2023-11-19T03:20:56;11.60;99.90
51765;DHT22;37835;53.256;6.456;2023-11-19T03:23:24;11.60;99.90
51765;DHT22;37835;53.256;6.456;2023-11-19T03:25:50;11.60;99.90
51765;DHT22;37835;53.256;6.456;2023-11-19T03:28:16;11.60;99.90
51765;DHT22;37835;53.256;6.456;2023-11-19T03:30:42;11.60;99.90
51765;DHT22;37835;53.256;6.456;2023-11-19T03:33:07;11.60;99.90
51765;DHT22;37835;53.256;6.456;2023-11-19T03:35:33;11.60;99.90
51765;DHT22;37835;53.256;6.456;2023-11-19T03:37:58;11.50;99.90
51765;DHT22;37835;53.256;6.456;2023-11-19T03:40:24;11.50;99.90
51765;DHT22;37835;53.256;6.456;2023-11-19T03:42:50;11.60;99.90
51765;DHT22;37835;53.256;6.456;2023-11-19T03:45:16;11.60;99.90
51765;DHT22;37835;53.256;6.456;2023-11-19T03:47:42;11.60;99.90
51765;DHT22;37835;53.256;6.456;2023-11-19T03:50:07;11.60;99.90
51765;DHT22;37835;53.256;6.456;2023-11-19T03:52:34;11.60;99.90
51765;DHT22;37835;53.256;6.456;2023-11-19T03:55:00;11.60;99.90
51765;DHT22;37835;53.256;6.456;2023-11-19T03:57:26;11.60;99.90
51765;DHT22;37835;53.256;6.456;2023-11-19T03:59:52;11.60;99.90
51765;DHT22;37835;53.256;6.456;2023-11-19T04:02:17;11.80;99.90
51765;DHT22;37835;53.256;6.456;2023-11-19T04:04:43;11.60;99.90
51765;DHT22;37835;53.256;6.456;2023-11-19T04:07:09;11.60;99.90
51765;DHT22;37835;53.256;6.456;2023-11-19T04:09:34;11.60;99.90
51765;DHT22;37835;53.256;6.456;2023-11-19T04:12:01;11.70;99.90
51765;DHT22;37835;53.256;6.456;2023-11-19T04:14:27;11.70;99.90
51765;DHT22;37835;53.256;6.456;2023-11-19T04:16:53;11.60;99.90
51765;DHT22;37835;53.256;6.456;2023-11-19T04:19:19;11.60;99.90
51765;DHT22;37835;53.256;6.456;2023-11-19T04:21:45;11.70;99.90
51765;DHT22;37835;53.256;6.456;2023-11-19T04:24:11;11.60;99.90
51765;DHT22;37835;53.256;6.456;2023-11-19T04:26:45;11.60;99.90
51765;DHT22;37835;53.256;6.456;2023-11-19T04:29:15;11.70;99.90
51765;DHT22;37835;53.256;6.456;2023-11-19T04:31:45;11.60;99.90
51765;DHT22;37835;53.256;6.456;2023-11-19T04:34:11;11.60;99.90
51765;DHT22;37835;53.256;6.456;2023-11-19T04:36:37;11.60;99.90
51765;DHT22;37835;53.256;6.456;2023-11-19T04:39:05;11.60;99.90
51765;DHT22;37835;53.256;6.456;2023-11-19T04:41:51;11.60;99.90
51765;DHT22;37835;53.256;6.456;2023-11-19T04:44:18;11.60;99.90
51765;DHT22;37835;53.256;6.456;2023-11-19T04:46:44;11.60;99.90
51765;DHT22;37835;53.256;6.456;2023-11-19T04:49:11;11.60;99.90
51765;DHT22;37835;53.256;6.456;2023-11-19T04:51:44;11.60;99.90
51765;DHT22;37835;53.256;6.456;2023-11-19T04:54:12;11.60;99.90
51765;DHT22;37835;53.256;6.456;2023-11-19T04:56:38;11.50;99.90
51765;DHT22;37835;53.256;6.456;2023-11-19T04:59:04;11.60;99.90
51765;DHT22;37835;53.256;6.456;2023-11-19T05:01:34;11.60;99.90
51765;DHT22;37835;53.256;6.456;2023-11-19T05:04:00;11.60;99.90
51765;DHT22;37835;53.256;6.456;2023-11-19T05:06:30;11.60;99.90
51765;DHT22;37835;53.256;6.456;2023-11-19T05:08:58;11.60;99.90
51765;DHT22;37835;53.256;6.456;2023-11-19T05:11:24;11.60;99.90
51765;DHT22;37835;53.256;6.456;2023-11-19T05:13:49;11.60;99.90
51765;DHT22;37835;53.256;6.456;2023-11-19T05:16:15;11.60;99.90
51765;DHT22;37835;53.256;6.456;2023-11-19T05:18:41;11.60;99.90
51765;DHT22;37835;53.256;6.456;2023-11-19T05:21:07;11.60;99.90
51765;DHT22;37835;53.256;6.456;2023-11-19T05:23:33;11.60;99.90
51765;DHT22;37835;53.256;6.456;2023-11-19T05:26:00;11.60;99.90
51765;DHT22;37835;53.256;6.456;2023-11-19T05:28:26;11.50;99.90
51765;DHT22;37835;53.256;6.456;2023-11-19T05:30:52;11.50;99.90
51765;DHT22;37835;53.256;6.456;2023-11-19T05:33:17;11.50;99.90
51765;DHT22;37835;53.256;6.456;2023-11-19T05:35:43;11.50;99.90
51765;DHT22;37835;53.256;6.456;2023-11-19T05:38:08;11.50;99.90
51765;DHT22;37835;53.256;6.456;2023-11-19T05:40:35;11.50;99.90
51765;DHT22;37835;53.256;6.456;2023-11-19T05:43:01;11.50;99.90
51765;DHT22;37835;53.256;6.456;2023-11-19T05:45:26;11.50;99.90
51765;DHT22;37835;53.256;6.456;2023-11-19T05:47:52;11.50;99.90
51765;DHT22;37835;53.256;6.456;2023-11-19T05:50:18;11.50;99.90
51765;DHT22;37835;53.256;6.456;2023-11-19T05:52:44;11.50;99.90
51765;DHT22;37835;53.256;6.456;2023-11-19T05:55:09;11.50;99.90
51765;DHT22;37835;53.256;6.456;2023-11-19T05:57:39;11.50;99.90
51765;DHT22;37835;53.256;6.456;2023-11-19T06:00:06;11.50;99.90
51765;DHT22;37835;53.256;6.456;2023-11-19T06:02:33;11.50;99.90
51765;DHT22;37835;53.256;6.456;2023-11-19T06:04:59;11.50;99.90
51765;DHT22;37835;53.256;6.456;2023-11-19T06:07:25;11.50;99.90
51765;DHT22;37835;53.256;6.456;2023-11-19T06:09:51;11.50;99.90
51765;DHT22;37835;53.256;6.456;2023-11-19T06:12:17;11.40;99.90
51765;DHT22;37835;53.256;6.456;2023-11-19T06:14:42;11.40;99.90
51765;DHT22;37835;53.256;6.456;2023-11-19T06:17:08;11.40;99.90
51765;DHT22;37835;53.256;6.456;2023-11-19T06:19:36;11.40;99.90
51765;DHT22;37835;53.256;6.456;2023-11-19T06:22:02;11.40;99.90
51765;DHT22;37835;53.256;6.456;2023-11-19T06:24:27;11.40;99.90
51765;DHT22;37835;53.256;6.456;2023-11-19T06:26:53;11.40;99.90
51765;DHT22;37835;53.256;6.456;2023-11-19T06:29:19;11.40;99.90
51765;DHT22;37835;53.256;6.456;2023-11-19T06:31:45;11.40;99.90
51765;DHT22;37835;53.256;6.456;2023-11-19T06:34:14;11.30;99.90
51765;DHT22;37835;53.256;6.456;2023-11-19T06:36:39;11.30;99.90
51765;DHT22;37835;53.256;6.456;2023-11-19T06:39:05;11.30;99.90
51765;DHT22;37835;53.256;6.456;2023-11-19T06:41:31;11.30;99.90
51765;DHT22;37835;53.256;6.456;2023-11-19T06:43:57;11.30;99.90
51765;DHT22;37835;53.256;6.456;2023-11-19T06:46:22;11.30;99.90
51765;DHT22;37835;53.256;6.456;2023-11-19T06:48:48;11.30;99.90
51765;DHT22;37835;53.256;6.456;2023-11-19T06:51:14;11.30;99.90
51765;DHT22;37835;53.256;6.456;2023-11-19T06:53:39;11.20;99.90
51765;DHT22;37835;53.256;6.456;2023-11-19T06:56:17;11.20;99.90
51765;DHT22;37835;53.256;6.456;2023-11-19T06:58:42;11.20;99.90
51765;DHT22;37835;53.256;6.456;2023-11-19T07:01:08;11.20;99.90
51765;DHT22;37835;53.256;6.456;2023-11-19T07:03:35;11.20;99.90
51765;DHT22;37835;53.256;6.456;2023-11-19T07:06:00;11.20;99.90
51765;DHT22;37835;53.256;6.456;2023-11-19T07:08:26;11.10;99.90
51765;DHT22;37835;53.256;6.456;2023-11-19T07:10:52;11.10;99.90
51765;DHT22;37835;53.256;6.456;2023-11-19T07:13:18;11.10;99.90
51765;DHT22;37835;53.256;6.456;2023-11-19T07:15:44;11.10;99.90
51765;DHT22;37835;53.256;6.456;2023-11-19T07:18:10;11.10;99.90
51765;DHT22;37835;53.256;6.456;2023-11-19T07:20:37;11.10;99.90
51765;DHT22;37835;53.256;6.456;2023-11-19T07:23:03;11.10;99.90
51765;DHT22;37835;53.256;6.456;2023-11-19T07:25:29;11.10;99.90
51765;DHT22;37835;53.256;6.456;2023-11-19T07:27:54;11.00;99.90
51765;DHT22;37835;53.256;6.456;2023-11-19T07:30:20;11.00;99.90
51765;DHT22;37835;53.256;6.456;2023-11-19T07:32:46;11.00;99.90
51765;DHT22;37835;53.256;6.456;2023-11-19T07:35:11;11.00;99.90
51765;DHT22;37835;53.256;6.456;2023-11-19T07:37:37;11.00;99.90
51765;DHT22;37835;53.256;6.456;2023-11-19T07:40:03;11.00;99.90
51765;DHT22;37835;53.256;6.456;2023-11-19T07:42:28;11.00;99.90
51765;DHT22;37835;53.256;6.456;2023-11-19T07:44:54;11.00;99.90
51765;DHT22;37835;53.256;6.456;2023-11-19T07:47:21;11.00;99.90
51765;DHT22;37835;53.256;6.456;2023-11-19T07:49:50;11.00;99.90
51765;DHT22;37835;53.256;6.456;2023-11-19T07:52:15;11.00;99.90
51765;DHT22;37835;53.256;6.456;2023-11-19T07:54:41;11.00;99.90
51765;DHT22;37835;53.256;6.456;2023-11-19T07:57:07;11.10;99.90
51765;DHT22;37835;53.256;6.456;2023-11-19T07:59:32;11.10;99.90
51765;DHT22;37835;53.256;6.456;2023-11-19T08:01:58;11.10;99.90
51765;DHT22;37835;53.256;6.456;2023-11-19T08:04:23;11.20;99.90
51765;DHT22;37835;53.256;6.456;2023-11-19T08:06:49;11.10;99.90
51765;DHT22;37835;53.256;6.456;2023-11-19T08:09:15;11.10;99.90
51765;DHT22;37835;53.256;6.456;2023-11-19T08:11:43;11.10;99.90
51765;DHT22;37835;53.256;6.456;2023-11-19T08:14:09;11.10;99.90
51765;DHT22;37835;53.256;6.456;2023-11-19T08:16:35;11.10;99.90
51765;DHT22;37835;53.256;6.456;2023-11-19T08:19:01;11.10;99.90
51765;DHT22;37835;53.256;6.456;2023-11-19T08:21:28;11.10;99.90
51765;DHT22;37835;53.256;6.456;2023-11-19T08:23:54;11.10;99.90
51765;DHT22;37835;53.256;6.456;2023-11-19T08:26:19;11.10;99.90
51765;DHT22;37835;53.256;6.456;2023-11-19T08:28:45;11.10;99.90
51765;DHT22;37835;53.256;6.456;2023-11-19T08:31:10;11.10;99.90
51765;DHT22;37835;53.256;6.456;2023-11-19T08:33:36;11.10;99.90
51765;DHT22;37835;53.256;6.456;2023-11-19T08:36:03;11.10;99.90
51765;DHT22;37835;53.256;6.456;2023-11-19T08:38:29;11.10;99.90
51765;DHT22;37835;53.256;6.456;2023-11-19T08:40:55;11.10;99.90
51765;DHT22;37835;53.256;6.456;2023-11-19T08:43:25;11.10;99.90
51765;DHT22;37835;53.256;6.456;2023-11-19T08:45:51;11.10;99.90
51765;DHT22;37835;53.256;6.456;2023-11-19T08:48:16;11.10;99.90
51765;DHT22;37835;53.256;6.456;2023-11-19T08:50:42;11.10;99.90
51765;DHT22;37835;53.256;6.456;2023-11-19T08:53:08;11.20;99.90
51765;DHT22;37835;53.256;6.456;2023-11-19T08:55:33;11.20;99.90
51765;DHT22;37835;53.256;6.456;2023-11-19T08:57:59;11.20;99.90
51765;DHT22;37835;53.256;6.456;2023-11-19T09:00:24;11.20;99.90
51765;DHT22;37835;53.256;6.456;2023-11-19T09:02:50;11.20;99.90
51765;DHT22;37835;53.256;6.456;2023-11-19T09:05:15;11.20;99.90
51765;DHT22;37835;53.256;6.456;2023-11-19T09:07:41;11.20;99.90
51765;DHT22;37835;53.256;6.456;2023-11-19T09:10:07;11.30;99.90
51765;DHT22;37835;53.256;6.456;2023-11-19T09:12:34;11.30;99.90
51765;DHT22;37835;53.256;6.456;2023-11-19T09:15:00;11.30;99.90
51765;DHT22;37835;53.256;6.456;2023-11-19T09:17:26;11.30;99.90
51765;DHT22;37835;53.256;6.456;2023-11-19T09:19:51;11.30;99.90
51765;DHT22;37835;53.256;6.456;2023-11-19T09:22:18;11.30;99.90
51765;DHT22;37835;53.256;6.456;2023-11-19T09:24:44;11.30;99.90
51765;DHT22;37835;53.256;6.456;2023-11-19T09:27:10;11.40;99.90
51765;DHT22;37835;53.256;6.456;2023-11-19T09:29:36;11.40;99.90
51765;DHT22;37835;53.256;6.456;2023-11-19T09:32:01;11.40;99.90
51765;DHT22;37835;53.256;6.456;2023-11-19T09:34:27;11.40;99.90
51765;DHT22;37835;53.256;6.456;2023-11-19T09:36:53;11.50;99.90
51765;DHT22;37835;53.256;6.456;2023-11-19T09:39:19;11.50;99.90
51765;DHT22;37835;53.256;6.456;2023-11-19T09:41:46;11.60;99.90
51765;DHT22;37835;53.256;6.456;2023-11-19T09:44:11;11.60;99.90
51765;DHT22;37835;53.256;6.456;2023-11-19T09:46:39;11.70;99.90
51765;DHT22;37835;53.256;6.456;2023-11-19T09:49:08;11.70;99.90
51765;DHT22;37835;53.256;6.456;2023-11-19T09:51:35;11.80;99.90
51765;DHT22;37835;53.256;6.456;2023-11-19T09:54:01;11.80;99.90
51765;DHT22;37835;53.256;6.456;2023-11-19T09:56:28;11.80;99.90
51765;DHT22;37835;53.256;6.456;2023-11-19T09:58:55;11.80;99.90
51765;DHT22;37835;53.256;6.456;2023-11-19T10:01:21;11.90;99.90
51765;DHT22;37835;53.256;6.456;2023-11-19T10:03:47;11.90;99.90
51765;DHT22;37835;53.256;6.456;2023-11-19T10:06:14;11.90;99.90
51765;DHT22;37835;53.256;6.456;2023-11-19T10:08:41;11.90;99.90
51765;DHT22;37835;53.256;6.456;2023-11-19T10:11:07;11.90;99.90
51765;DHT22;37835;53.256;6.456;2023-11-19T10:13:36;11.90;99.90
51765;DHT22;37835;53.256;6.456;2023-11-19T10:16:13;11.90;99.90
51765;DHT22;37835;53.256;6.456;2023-11-19T10:18:46;12.00;99.90
51765;DHT22;37835;53.256;6.456;2023-11-19T10:21:13;12.00;99.90
51765;DHT22;37835;53.256;6.456;2023-11-19T10:23:52;12.00;99.90
51765;DHT22;37835;53.256;6.456;2023-11-19T10:26:19;12.00;99.90
51765;DHT22;37835;53.256;6.456;2023-11-19T10:28:46;12.00;99.90
51765;DHT22;37835;53.256;6.456;2023-11-19T10:31:16;12.10;99.90
51765;DHT22;37835;53.256;6.456;2023-11-19T10:33:42;12.10;99.90
51765;DHT22;37835;53.256;6.456;2023-11-19T10:36:13;12.10;99.90
51765;DHT22;37835;53.256;6.456;2023-11-19T10:38:40;12.10;99.90
51765;DHT22;37835;53.256;6.456;2023-11-19T10:41:06;12.10;99.90
51765;DHT22;37835;53.256;6.456;2023-11-19T10:43:42;12.20;99.90
51765;DHT22;37835;53.256;6.456;2023-11-19T10:46:13;12.20;99.90
51765;DHT22;37835;53.256;6.456;2023-11-19T10:48:40;12.30;99.90
51765;DHT22;37835;53.256;6.456;2023-11-19T10:51:07;12.30;99.90
51765;DHT22;37835;53.256;6.456;2023-11-19T10:53:38;12.40;99.90
51765;DHT22;37835;53.256;6.456;2023-11-19T10:56:06;12.40;99.90
51765;DHT22;37835;53.256;6.456;2023-11-19T11:01:09;12.40;99.90
51765;DHT22;37835;53.256;6.456;2023-11-19T11:03:40;12.40;99.90
51765;DHT22;37835;53.256;6.456;2023-11-19T11:06:06;12.40;99.90
51765;DHT22;37835;53.256;6.456;2023-11-19T11:08:32;12.50;99.90
51765;DHT22;37835;53.256;6.456;2023-11-19T11:11:02;12.50;99.90
51765;DHT22;37835;53.256;6.456;2023-11-19T11:13:30;12.50;99.90
51765;DHT22;37835;53.256;6.456;2023-11-19T11:15:57;12.50;99.90
51765;DHT22;37835;53.256;6.456;2023-11-19T11:18:24;12.50;99.90
51765;DHT22;37835;53.256;6.456;2023-11-19T11:21:05;12.40;99.90
51765;DHT22;37835;53.256;6.456;2023-11-19T11:28:57;12.40;99.90
51765;DHT22;37835;53.256;6.456;2023-11-19T11:34:43;12.40;99.90
51765;DHT22;37835;53.256;6.456;2023-11-19T11:37:39;12.40;99.90
51765;DHT22;37835;53.256;6.456;2023-11-19T11:40:05;12.40;99.90
51765;DHT22;37835;53.256;6.456;2023-11-19T11:42:38;12.40;99.90
51765;DHT22;37835;53.256;6.456;2023-11-19T11:50:09;12.40;99.90
51765;DHT22;37835;53.256;6.456;2023-11-19T11:55:36;12.40;99.90
51765;DHT22;37835;53.256;6.456;2023-11-19T11:58:08;12.30;99.90
51765;DHT22;37835;53.256;6.456;2023-11-19T12:00:38;12.30;99.90
51765;DHT22;37835;53.256;6.456;2023-11-19T12:03:06;12.30;99.90
51765;DHT22;37835;53.256;6.456;2023-11-19T12:05:32;12.30;99.90
51765;DHT22;37835;53.256;6.456;2023-11-19T12:08:06;12.30;99.90
51765;DHT22;37835;53.256;6.456;2023-11-19T12:10:58;12.40;99.90
51765;DHT22;37835;53.256;6.456;2023-11-19T12:13:42;12.40;99.90
51765;DHT22;37835;53.256;6.456;2023-11-19T12:16:11;12.50;99.90
51765;DHT22;37835;53.256;6.456;2023-11-19T12:18:38;12.60;99.90
51765;DHT22;37835;53.256;6.456;2023-11-19T12:21:04;12.70;99.90
51765;DHT22;37835;53.256;6.456;2023-11-19T12:23:31;12.80;99.90
51765;DHT22;37835;53.256;6.456;2023-11-19T12:25:58;12.80;99.90
51765;DHT22;37835;53.256;6.456;2023-11-19T12:28:24;12.90;99.90
51765;DHT22;37835;53.256;6.456;2023-11-19T12:30:52;12.90;99.90
51765;DHT22;37835;53.256;6.456;2023-11-19T12:33:19;12.90;99.90
51765;DHT22;37835;53.256;6.456;2023-11-19T12:35:46;12.90;99.90
51765;DHT22;37835;53.256;6.456;2023-11-19T12:38:25;12.90;99.90
51765;DHT22;37835;53.256;6.456;2023-11-19T12:41:07;13.00;99.90
51765;DHT22;37835;53.256;6.456;2023-11-19T12:43:34;13.00;99.90
51765;DHT22;37835;53.256;6.456;2023-11-19T12:46:00;12.90;99.90
51765;DHT22;37835;53.256;6.456;2023-11-19T12:48:25;12.90;99.90
51765;DHT22;37835;53.256;6.456;2023-11-19T12:50:55;12.90;99.90
51765;DHT22;37835;53.256;6.456;2023-11-19T12:53:26;12.90;99.90
51765;DHT22;37835;53.256;6.456;2023-11-19T12:55:53;12.90;99.90
51765;DHT22;37835;53.256;6.456;2023-11-19T12:58:32;12.90;99.90
51765;DHT22;37835;53.256;6.456;2023-11-19T13:01:06;12.90;99.90
51765;DHT22;37835;53.256;6.456;2023-11-19T13:03:36;12.90;99.90
51765;DHT22;37835;53.256;6.456;2023-11-19T13:06:08;12.80;99.90
51765;DHT22;37835;53.256;6.456;2023-11-19T13:08:47;12.80;99.90
51765;DHT22;37835;53.256;6.456;2023-11-19T13:11:35;12.80;99.90
51765;DHT22;37835;53.256;6.456;2023-11-19T13:14:03;12.80;99.90
51765;DHT22;37835;53.256;6.456;2023-11-19T13:16:30;12.70;99.90
51765;DHT22;37835;53.256;6.456;2023-11-19T13:18:56;12.70;99.90
51765;DHT22;37835;53.256;6.456;2023-11-19T13:21:23;12.70;99.90
51765;DHT22;37835;53.256;6.456;2023-11-19T13:23:48;12.70;99.90
51765;DHT22;37835;53.256;6.456;2023-11-19T13:26:14;12.70;99.90
51765;DHT22;37835;53.256;6.456;2023-11-19T13:28:40;12.70;99.90
51765;DHT22;37835;53.256;6.456;2023-11-19T13:31:05;12.60;99.90
51765;DHT22;37835;53.256;6.456;2023-11-19T13:33:31;12.60;99.90
51765;DHT22;37835;53.256;6.456;2023-11-19T13:35:57;12.60;99.90
51765;DHT22;37835;53.256;6.456;2023-11-19T13:38:22;12.60;99.90
51765;DHT22;37835;53.256;6.456;2023-11-19T13:40:51;12.60;99.90
51765;DHT22;37835;53.256;6.456;2023-11-19T13:43:17;12.60;99.90
51765;DHT22;37835;53.256;6.456;2023-11-19T13:45:42;12.60;99.90
51765;DHT22;37835;53.256;6.456;2023-11-19T13:48:08;12.60;99.90
51765;DHT22;37835;53.256;6.456;2023-11-19T13:50:34;12.60;99.90
51765;DHT22;37835;53.256;6.456;2023-11-19T13:53:00;12.60;99.90
51765;DHT22;37835;53.256;6.456;2023-11-19T13:55:26;12.60;99.90
51765;DHT22;37835;53.256;6.456;2023-11-19T13:57:51;12.60;99.90
51765;DHT22;37835;53.256;6.456;2023-11-19T14:00:17;12.50;99.90
51765;DHT22;37835;53.256;6.456;2023-11-19T14:02:45;12.50;99.90
51765;DHT22;37835;53.256;6.456;2023-11-19T14:05:11;12.50;99.90
51765;DHT22;37835;53.256;6.456;2023-11-19T14:07:37;12.50;99.90
51765;DHT22;37835;53.256;6.456;2023-11-19T14:10:03;12.40;99.90
51765;DHT22;37835;53.256;6.456;2023-11-19T14:12:31;12.40;99.90
51765;DHT22;37835;53.256;6.456;2023-11-19T14:14:57;12.40;99.90
51765;DHT22;37835;53.256;6.456;2023-11-19T14:17:23;12.30;99.90
51765;DHT22;37835;53.256;6.456;2023-11-19T14:19:50;12.30;99.90
51765;DHT22;37835;53.256;6.456;2023-11-19T14:22:16;12.30;99.90
51765;DHT22;37835;53.256;6.456;2023-11-19T14:24:42;12.20;99.90
51765;DHT22;37835;53.256;6.456;2023-11-19T14:27:09;12.20;99.90
51765;DHT22;37835;53.256;6.456;2023-11-19T14:29:35;12.10;99.90
51765;DHT22;37835;53.256;6.456;2023-11-19T14:32:02;12.10;99.90
51765;DHT22;37835;53.256;6.456;2023-11-19T14:34:29;12.00;99.90
51765;DHT22;37835;53.256;6.456;2023-11-19T14:36:54;12.00;99.90
51765;DHT22;37835;53.256;6.456;2023-11-19T14:39:20;12.00;99.90
51765;DHT22;37835;53.256;6.456;2023-11-19T14:41:46;11.90;99.90
51765;DHT22;37835;53.256;6.456;2023-11-19T14:44:16;11.50;99.90
51765;DHT22;37835;53.256;6.456;2023-11-19T14:46:42;11.90;99.90
51765;DHT22;37835;53.256;6.456;2023-11-19T14:49:08;11.90;99.90
51765;DHT22;37835;53.256;6.456;2023-11-19T14:51:39;11.90;99.90
51765;DHT22;37835;53.256;6.456;2023-11-19T14:54:05;11.90;99.90
51765;DHT22;37835;53.256;6.456;2023-11-19T14:56:31;11.90;99.90
51765;DHT22;37835;53.256;6.456;2023-11-19T14:58:57;11.90;99.90
51765;DHT22;37835;53.256;6.456;2023-11-19T15:01:24;11.90;99.90
51765;DHT22;37835;53.256;6.456;2023-11-19T15:03:50;11.80;99.90
51765;DHT22;37835;53.256;6.456;2023-11-19T15:06:15;11.80;99.90
51765;DHT22;37835;53.256;6.456;2023-11-19T15:08:41;11.80;99.90
51765;DHT22;37835;53.256;6.456;2023-11-19T15:11:07;11.70;99.90
51765;DHT22;37835;53.256;6.456;2023-11-19T15:13:34;11.70;99.90
51765;DHT22;37835;53.256;6.456;2023-11-19T15:16:02;11.70;99.90
51765;DHT22;37835;53.256;6.456;2023-11-19T15:18:31;11.70;99.90
51765;DHT22;37835;53.256;6.456;2023-11-19T15:20:56;11.70;99.90
51765;DHT22;37835;53.256;6.456;2023-11-19T15:23:22;11.60;99.90
51765;DHT22;37835;53.256;6.456;2023-11-19T15:25:48;11.60;99.90
51765;DHT22;37835;53.256;6.456;2023-11-19T15:28:14;11.60;99.90
51765;DHT22;37835;53.256;6.456;2023-11-19T15:30:40;11.60;99.90
51765;DHT22;37835;53.256;6.456;2023-11-19T15:33:05;11.60;99.90
51765;DHT22;37835;53.256;6.456;2023-11-19T15:35:31;11.60;99.90
51765;DHT22;37835;53.256;6.456;2023-11-19T15:37:56;11.60;99.90
51765;DHT22;37835;53.256;6.456;2023-11-19T15:40:22;11.60;99.90
51765;DHT22;37835;53.256;6.456;2023-11-19T15:42:48;11.60;99.90
51765;DHT22;37835;53.256;6.456;2023-11-19T15:45:13;11.60;99.90
51765;DHT22;37835;53.256;6.456;2023-11-19T15:47:40;11.60;99.90